createdAt,value
2022-10-26T00:13:07.361Z,89.0
2022-10-26T00:33:07.388Z,90.3
2022-10-26T00:53:07.304Z,89.3
2022-10-26T01:13:07.280Z,89.9
2022-10-26T01:33:07.296Z,90.3
2022-10-26T01:53:07.321Z,90.0
2022-10-26T02:13:07.233Z,90.0
2022-10-26T02:33:07.259Z,90.3
2022-10-26T02:53:07.278Z,90.3
2022-10-26T03:13:07.187Z,90.4
2022-10-26T03:33:07.209Z,90.1
2022-10-26T03:53:07.238Z,90.1
2022-10-26T04:13:07.153Z,90.1
2022-10-26T04:33:07.166Z,90.1
2022-10-26T04:53:07.236Z,90.0
2022-10-26T05:13:07.116Z,90.3
2022-10-26T05:33:07.118Z,90.3
2022-10-26T05:53:07.133Z,90.2
2022-10-26T06:13:07.055Z,90.3
2022-10-26T06:33:07.084Z,90.8
2022-10-26T06:53:07.087Z,90.9
2022-10-26T07:13:07.003Z,91.0
2022-10-26T07:33:07.021Z,90.5
2022-10-26T07:53:07.046Z,90.7
2022-10-26T08:13:06.966Z,90.4
2022-10-26T08:33:07.007Z,89.8
2022-10-26T08:53:07.000Z,87.8
2022-10-26T09:13:06.920Z,86.9
2022-10-26T09:33:06.930Z,87.3
2022-10-26T09:53:06.853Z,86.5
2022-10-26T10:13:06.869Z,83.5
2022-10-26T10:33:06.889Z,81.6
2022-10-26T10:53:06.809Z,81.6
2022-10-26T11:13:06.825Z,79.5
2022-10-26T11:33:06.750Z,77.4
2022-10-26T11:53:06.766Z,74.0
2022-10-26T12:13:06.684Z,76.1
2022-10-26T12:33:06.700Z,77.1
2022-10-26T12:53:06.768Z,73.7
2022-10-26T13:13:06.644Z,72.4
2022-10-26T13:33:06.691Z,75.0
2022-10-26T13:53:06.580Z,74.5
2022-10-26T14:13:06.598Z,75.4
2022-10-26T14:33:06.520Z,77.3
2022-10-26T14:53:06.543Z,78.3
2022-10-26T15:13:06.574Z,81.8
2022-10-26T15:33:06.524Z,83.3
2022-10-26T15:53:06.498Z,84.4
2022-10-26T16:13:06.417Z,85.6
2022-10-26T16:33:06.445Z,87.0
2022-10-26T16:53:06.386Z,87.2
2022-10-26T17:13:06.398Z,87.8
2022-10-26T17:33:06.555Z,87.6
2022-10-26T17:53:06.440Z,88.3
2022-10-26T18:13:06.482Z,88.2
2022-10-26T18:33:06.335Z,88.4
2022-10-26T18:53:06.409Z,88.6
2022-10-26T19:13:06.418Z,88.6
2022-10-26T19:53:06.229Z,89.4
2022-10-26T20:13:06.249Z,90.2
2022-10-26T20:33:06.200Z,90.0
2022-10-26T20:53:06.183Z,90.1
2022-10-26T21:13:06.200Z,89.4
2022-10-26T21:33:06.124Z,89.8
2022-10-26T21:53:06.138Z,90.6
2022-10-26T22:13:06.161Z,90.1
2022-10-26T22:33:06.077Z,89.8
2022-10-26T22:53:06.096Z,90.2
2022-10-26T23:13:06.112Z,90.9
2022-10-26T23:33:06.030Z,91.0
2022-10-26T23:53:06.046Z,89.6
